sensor_id;sensor_type;location;lat;lon;timestamp;P1;durP1;ratioP1;P2;durP2;ratioP2
76059;SDS011;64759;52.220;5.170;2023-04-03T00:01:03;5.47;;;1.70;;
76059;SDS011;64759;52.220;5.170;2023-04-03T00:03:30;5.03;;;1.75;;
76059;SDS011;64759;52.220;5.170;2023-04-03T00:05:55;2.65;;;1.27;;
76059;SDS011;64759;52.220;5.170;2023-04-03T00:08:21;3.70;;;1.42;;
76059;SDS011;64759;52.220;5.170;2023-04-03T00:10:48;5.90;;;1.92;;
76059;SDS011;64759;52.220;5.170;2023-04-03T00:13:13;4.68;;;1.70;;
76059;SDS011;64759;52.220;5.170;2023-04-03T00:15:39;3.40;;;1.83;;
76059;SDS011;64759;52.220;5.170;2023-04-03T00:18:05;3.38;;;1.67;;
76059;SDS011;64759;52.220;5.170;2023-04-03T00:20:31;3.88;;;1.77;;
76059;SDS011;64759;52.220;5.170;2023-04-03T00:22:57;5.25;;;1.88;;
76059;SDS011;64759;52.220;5.170;2023-04-03T00:25:23;2.15;;;1.52;;
76059;SDS011;64759;52.220;5.170;2023-04-03T00:27:49;3.55;;;1.58;;
76059;SDS011;64759;52.220;5.170;2023-04-03T00:30:16;3.13;;;1.60;;
76059;SDS011;64759;52.220;5.170;2023-04-03T00:32:43;3.15;;;2.28;;
76059;SDS011;64759;52.220;5.170;2023-04-03T00:35:09;5.85;;;1.52;;
76059;SDS011;64759;52.220;5.170;2023-04-03T00:37:35;3.17;;;2.08;;
76059;SDS011;64759;52.220;5.170;2023-04-03T00:40:01;4.10;;;1.70;;
76059;SDS011;64759;52.220;5.170;2023-04-03T00:42:28;5.53;;;2.25;;
76059;SDS011;64759;52.220;5.170;2023-04-03T00:47:42;4.97;;;1.60;;
76059;SDS011;64759;52.220;5.170;2023-04-03T00:50:07;4.38;;;2.33;;
76059;SDS011;64759;52.220;5.170;2023-04-03T00:52:33;3.00;;;2.03;;
76059;SDS011;64759;52.220;5.170;2023-04-03T00:55:00;3.35;;;2.13;;
76059;SDS011;64759;52.220;5.170;2023-04-03T00:59:57;6.28;;;1.63;;
76059;SDS011;64759;52.220;5.170;2023-04-03T01:02:27;7.05;;;2.10;;
76059;SDS011;64759;52.220;5.170;2023-04-03T01:04:52;3.72;;;1.70;;
76059;SDS011;64759;52.220;5.170;2023-04-03T01:07:20;7.93;;;1.88;;
76059;SDS011;64759;52.220;5.170;2023-04-03T01:14:45;3.40;;;1.60;;
76059;SDS011;64759;52.220;5.170;2023-04-03T01:19:57;6.30;;;1.67;;
76059;SDS011;64759;52.220;5.170;2023-04-03T01:22:56;6.47;;;1.95;;
76059;SDS011;64759;52.220;5.170;2023-04-03T01:25:28;3.35;;;1.60;;
76059;SDS011;64759;52.220;5.170;2023-04-03T01:27:55;2.35;;;1.40;;
76059;SDS011;64759;52.220;5.170;2023-04-03T01:30:21;5.50;;;1.55;;
76059;SDS011;64759;52.220;5.170;2023-04-03T01:32:52;5.13;;;2.20;;
76059;SDS011;64759;52.220;5.170;2023-04-03T01:35:18;3.75;;;1.88;;
76059;SDS011;64759;52.220;5.170;2023-04-03T01:37:44;4.18;;;1.77;;
76059;SDS011;64759;52.220;5.170;2023-04-03T01:40:09;6.15;;;1.90;;
76059;SDS011;64759;52.220;5.170;2023-04-03T01:42:35;4.05;;;1.77;;
76059;SDS011;64759;52.220;5.170;2023-04-03T01:45:01;2.63;;;1.50;;
76059;SDS011;64759;52.220;5.170;2023-04-03T01:47:26;8.60;;;2.95;;
76059;SDS011;64759;52.220;5.170;2023-04-03T01:49:52;5.90;;;1.77;;
76059;SDS011;64759;52.220;5.170;2023-04-03T01:52:18;4.35;;;1.60;;
76059;SDS011;64759;52.220;5.170;2023-04-03T01:54:43;7.57;;;2.35;;
76059;SDS011;64759;52.220;5.170;2023-04-03T01:57:09;4.50;;;1.70;;
76059;SDS011;64759;52.220;5.170;2023-04-03T01:59:35;4.22;;;1.88;;
76059;SDS011;64759;52.220;5.170;2023-04-03T02:02:01;6.05;;;1.80;;
76059;SDS011;64759;52.220;5.170;2023-04-03T02:04:26;6.45;;;2.17;;
76059;SDS011;64759;52.220;5.170;2023-04-03T02:06:52;7.57;;;1.90;;
76059;SDS011;64759;52.220;5.170;2023-04-03T02:09:18;3.28;;;1.83;;
76059;SDS011;64759;52.220;5.170;2023-04-03T02:11:43;4.00;;;1.33;;
76059;SDS011;64759;52.220;5.170;2023-04-03T02:14:09;4.22;;;1.80;;
76059;SDS011;64759;52.220;5.170;2023-04-03T02:16:35;7.22;;;2.08;;
76059;SDS011;64759;52.220;5.170;2023-04-03T02:19:00;9.82;;;2.28;;
76059;SDS011;64759;52.220;5.170;2023-04-03T02:21:26;4.13;;;1.50;;
76059;SDS011;64759;52.220;5.170;2023-04-03T02:23:52;4.85;;;1.80;;
76059;SDS011;64759;52.220;5.170;2023-04-03T02:26:18;11.75;;;2.20;;
76059;SDS011;64759;52.220;5.170;2023-04-03T02:28:44;5.25;;;1.83;;
76059;SDS011;64759;52.220;5.170;2023-04-03T02:31:09;5.28;;;1.80;;
76059;SDS011;64759;52.220;5.170;2023-04-03T02:33:37;5.05;;;2.03;;
76059;SDS011;64759;52.220;5.170;2023-04-03T02:36:06;5.97;;;2.05;;
76059;SDS011;64759;52.220;5.170;2023-04-03T02:38:33;7.45;;;1.95;;
76059;SDS011;64759;52.220;5.170;2023-04-03T02:41:04;6.05;;;2.20;;
76059;SDS011;64759;52.220;5.170;2023-04-03T02:43:33;17.17;;;2.50;;
76059;SDS011;64759;52.220;5.170;2023-04-03T02:45:59;3.35;;;1.67;;
76059;SDS011;64759;52.220;5.170;2023-04-03T02:48:25;4.97;;;2.30;;
76059;SDS011;64759;52.220;5.170;2023-04-03T02:50:52;5.30;;;2.03;;
76059;SDS011;64759;52.220;5.170;2023-04-03T02:53:18;11.68;;;2.25;;
76059;SDS011;64759;52.220;5.170;2023-04-03T02:55:45;5.18;;;1.90;;
76059;SDS011;64759;52.220;5.170;2023-04-03T02:58:11;8.73;;;2.30;;
76059;SDS011;64759;52.220;5.170;2023-04-03T03:00:36;6.75;;;2.08;;
76059;SDS011;64759;52.220;5.170;2023-04-03T03:03:03;1.67;;;1.48;;
76059;SDS011;64759;52.220;5.170;2023-04-03T03:05:30;2.97;;;1.90;;
76059;SDS011;64759;52.220;5.170;2023-04-03T03:07:55;6.30;;;2.03;;
76059;SDS011;64759;52.220;5.170;2023-04-03T03:10:21;3.58;;;1.80;;
76059;SDS011;64759;52.220;5.170;2023-04-03T03:12:47;4.03;;;2.00;;
76059;SDS011;64759;52.220;5.170;2023-04-03T03:15:12;6.65;;;2.03;;
76059;SDS011;64759;52.220;5.170;2023-04-03T03:17:38;4.18;;;1.67;;
76059;SDS011;64759;52.220;5.170;2023-04-03T03:20:04;7.03;;;2.42;;
76059;SDS011;64759;52.220;5.170;2023-04-03T03:22:31;5.57;;;2.03;;
76059;SDS011;64759;52.220;5.170;2023-04-03T03:24:57;7.85;;;2.15;;
76059;SDS011;64759;52.220;5.170;2023-04-03T03:27:22;3.55;;;1.73;;
76059;SDS011;64759;52.220;5.170;2023-04-03T03:29:49;8.38;;;2.10;;
76059;SDS011;64759;52.220;5.170;2023-04-03T03:32:14;6.07;;;2.53;;
76059;SDS011;64759;52.220;5.170;2023-04-03T03:34:41;7.13;;;2.00;;
76059;SDS011;64759;52.220;5.170;2023-04-03T03:37:06;2.92;;;2.25;;
76059;SDS011;64759;52.220;5.170;2023-04-03T03:39:33;6.70;;;2.30;;
76059;SDS011;64759;52.220;5.170;2023-04-03T03:41:58;10.07;;;2.83;;
76059;SDS011;64759;52.220;5.170;2023-04-03T03:44:23;4.05;;;2.10;;
76059;SDS011;64759;52.220;5.170;2023-04-03T03:46:49;5.18;;;1.92;;
76059;SDS011;64759;52.220;5.170;2023-04-03T03:49:15;6.10;;;2.42;;
76059;SDS011;64759;52.220;5.170;2023-04-03T03:51:41;5.82;;;2.10;;
76059;SDS011;64759;52.220;5.170;2023-04-03T03:54:06;5.18;;;2.20;;
76059;SDS011;64759;52.220;5.170;2023-04-03T03:56:33;8.27;;;2.60;;
76059;SDS011;64759;52.220;5.170;2023-04-03T03:58:59;9.32;;;2.45;;
76059;SDS011;64759;52.220;5.170;2023-04-03T04:01:25;5.03;;;2.15;;
76059;SDS011;64759;52.220;5.170;2023-04-03T04:03:51;8.32;;;2.33;;
76059;SDS011;64759;52.220;5.170;2023-04-03T04:06:20;4.82;;;2.28;;
76059;SDS011;64759;52.220;5.170;2023-04-03T04:08:46;4.75;;;2.22;;
76059;SDS011;64759;52.220;5.170;2023-04-03T04:11:13;6.32;;;1.95;;
76059;SDS011;64759;52.220;5.170;2023-04-03T04:13:40;8.52;;;1.95;;
76059;SDS011;64759;52.220;5.170;2023-04-03T04:16:07;6.53;;;2.35;;
76059;SDS011;64759;52.220;5.170;2023-04-03T04:18:33;8.02;;;2.53;;
76059;SDS011;64759;52.220;5.170;2023-04-03T04:20:59;5.78;;;2.35;;
76059;SDS011;64759;52.220;5.170;2023-04-03T04:23:25;5.60;;;2.20;;
76059;SDS011;64759;52.220;5.170;2023-04-03T04:25:51;5.63;;;2.03;;
76059;SDS011;64759;52.220;5.170;2023-04-03T04:28:18;9.77;;;2.83;;
76059;SDS011;64759;52.220;5.170;2023-04-03T04:30:46;10.25;;;2.35;;
76059;SDS011;64759;52.220;5.170;2023-04-03T04:33:12;6.00;;;2.45;;
76059;SDS011;64759;52.220;5.170;2023-04-03T04:35:41;14.07;;;2.58;;
76059;SDS011;64759;52.220;5.170;2023-04-03T04:38:07;9.43;;;3.10;;
76059;SDS011;64759;52.220;5.170;2023-04-03T04:40:33;10.50;;;3.40;;
76059;SDS011;64759;52.220;5.170;2023-04-03T04:42:59;6.68;;;2.35;;
76059;SDS011;64759;52.220;5.170;2023-04-03T04:45:24;7.65;;;2.40;;
76059;SDS011;64759;52.220;5.170;2023-04-03T04:47:50;7.07;;;2.55;;
76059;SDS011;64759;52.220;5.170;2023-04-03T04:50:17;8.25;;;2.38;;
76059;SDS011;64759;52.220;5.170;2023-04-03T04:52:43;7.68;;;2.58;;
76059;SDS011;64759;52.220;5.170;2023-04-03T04:55:09;9.73;;;2.60;;
76059;SDS011;64759;52.220;5.170;2023-04-03T04:57:35;11.15;;;2.95;;
76059;SDS011;64759;52.220;5.170;2023-04-03T05:00:02;6.32;;;2.20;;
76059;SDS011;64759;52.220;5.170;2023-04-03T05:02:30;9.27;;;2.67;;
76059;SDS011;64759;52.220;5.170;2023-04-03T05:04:56;6.40;;;2.35;;
76059;SDS011;64759;52.220;5.170;2023-04-03T05:07:25;12.32;;;3.75;;
76059;SDS011;64759;52.220;5.170;2023-04-03T05:09:51;7.25;;;2.53;;
76059;SDS011;64759;52.220;5.170;2023-04-03T05:12:17;12.25;;;3.15;;
76059;SDS011;64759;52.220;5.170;2023-04-03T05:14:48;5.53;;;2.40;;
76059;SDS011;64759;52.220;5.170;2023-04-03T05:17:15;6.10;;;3.03;;
76059;SDS011;64759;52.220;5.170;2023-04-03T05:19:47;9.10;;;2.78;;
76059;SDS011;64759;52.220;5.170;2023-04-03T05:22:13;12.60;;;3.22;;
76059;SDS011;64759;52.220;5.170;2023-04-03T05:24:41;8.57;;;2.53;;
76059;SDS011;64759;52.220;5.170;2023-04-03T05:27:07;7.63;;;2.55;;
76059;SDS011;64759;52.220;5.170;2023-04-03T05:29:38;13.90;;;3.78;;
76059;SDS011;64759;52.220;5.170;2023-04-03T05:32:04;9.18;;;2.38;;
76059;SDS011;64759;52.220;5.170;2023-04-03T05:34:29;11.88;;;3.15;;
76059;SDS011;64759;52.220;5.170;2023-04-03T05:36:55;23.33;;;3.38;;
76059;SDS011;64759;52.220;5.170;2023-04-03T05:39:21;17.17;;;2.95;;
76059;SDS011;64759;52.220;5.170;2023-04-03T05:41:47;14.82;;;3.15;;
76059;SDS011;64759;52.220;5.170;2023-04-03T05:44:13;7.38;;;3.10;;
76059;SDS011;64759;52.220;5.170;2023-04-03T05:46:40;6.55;;;2.97;;
76059;SDS011;64759;52.220;5.170;2023-04-03T05:49:08;19.00;;;3.30;;
76059;SDS011;64759;52.220;5.170;2023-04-03T05:51:35;10.45;;;2.85;;
76059;SDS011;64759;52.220;5.170;2023-04-03T05:54:26;7.47;;;2.78;;
76059;SDS011;64759;52.220;5.170;2023-04-03T05:57:03;8.85;;;3.20;;
76059;SDS011;64759;52.220;5.170;2023-04-03T05:59:29;13.55;;;2.95;;
76059;SDS011;64759;52.220;5.170;2023-04-03T06:01:57;10.95;;;3.45;;
76059;SDS011;64759;52.220;5.170;2023-04-03T06:04:23;8.20;;;3.33;;
76059;SDS011;64759;52.220;5.170;2023-04-03T06:06:53;17.58;;;3.85;;
76059;SDS011;64759;52.220;5.170;2023-04-03T06:09:20;18.88;;;3.75;;
76059;SDS011;64759;52.220;5.170;2023-04-03T06:11:50;11.82;;;4.22;;
76059;SDS011;64759;52.220;5.170;2023-04-03T06:14:17;10.57;;;3.40;;
76059;SDS011;64759;52.220;5.170;2023-04-03T06:16:43;6.68;;;2.92;;
76059;SDS011;64759;52.220;5.170;2023-04-03T06:19:10;9.18;;;3.15;;
76059;SDS011;64759;52.220;5.170;2023-04-03T06:21:41;9.80;;;3.78;;
76059;SDS011;64759;52.220;5.170;2023-04-03T06:24:07;6.72;;;2.83;;
76059;SDS011;64759;52.220;5.170;2023-04-03T06:26:33;8.88;;;2.40;;
76059;SDS011;64759;52.220;5.170;2023-04-03T06:28:59;8.35;;;2.55;;
76059;SDS011;64759;52.220;5.170;2023-04-03T06:31:26;6.85;;;2.40;;
76059;SDS011;64759;52.220;5.170;2023-04-03T06:33:52;12.57;;;2.80;;
76059;SDS011;64759;52.220;5.170;2023-04-03T06:36:19;6.90;;;2.30;;
76059;SDS011;64759;52.220;5.170;2023-04-03T06:38:46;10.15;;;2.90;;
76059;SDS011;64759;52.220;5.170;2023-04-03T06:41:12;9.70;;;2.72;;
76059;SDS011;64759;52.220;5.170;2023-04-03T06:43:37;6.50;;;2.88;;
76059;SDS011;64759;52.220;5.170;2023-04-03T06:46:02;9.10;;;2.90;;
76059;SDS011;64759;52.220;5.170;2023-04-03T06:48:28;15.38;;;2.70;;
76059;SDS011;64759;52.220;5.170;2023-04-03T06:50:54;6.15;;;2.95;;
76059;SDS011;64759;52.220;5.170;2023-04-03T06:53:20;5.35;;;1.92;;
76059;SDS011;64759;52.220;5.170;2023-04-03T06:55:46;4.00;;;2.17;;
76059;SDS011;64759;52.220;5.170;2023-04-03T06:58:12;7.00;;;2.38;;
76059;SDS011;64759;52.220;5.170;2023-04-03T07:00:38;10.48;;;2.97;;
76059;SDS011;64759;52.220;5.170;2023-04-03T07:03:04;7.53;;;2.40;;
76059;SDS011;64759;52.220;5.170;2023-04-03T07:05:29;9.85;;;2.65;;
76059;SDS011;64759;52.220;5.170;2023-04-03T07:07:55;9.07;;;2.30;;
76059;SDS011;64759;52.220;5.170;2023-04-03T07:10:21;7.22;;;3.13;;
76059;SDS011;64759;52.220;5.170;2023-04-03T07:12:48;3.47;;;2.10;;
76059;SDS011;64759;52.220;5.170;2023-04-03T07:15:13;7.50;;;2.63;;
76059;SDS011;64759;52.220;5.170;2023-04-03T07:17:39;7.53;;;2.22;;
76059;SDS011;64759;52.220;5.170;2023-04-03T07:20:06;5.90;;;2.15;;
76059;SDS011;64759;52.220;5.170;2023-04-03T07:22:32;8.50;;;2.88;;
76059;SDS011;64759;52.220;5.170;2023-04-03T07:24:58;8.23;;;2.70;;
76059;SDS011;64759;52.220;5.170;2023-04-03T07:27:24;8.15;;;2.80;;
76059;SDS011;64759;52.220;5.170;2023-04-03T07:29:50;14.75;;;4.38;;
76059;SDS011;64759;52.220;5.170;2023-04-03T07:32:16;10.05;;;2.65;;
76059;SDS011;64759;52.220;5.170;2023-04-03T07:34:50;8.35;;;2.97;;
76059;SDS011;64759;52.220;5.170;2023-04-03T07:37:15;9.55;;;3.40;;
76059;SDS011;64759;52.220;5.170;2023-04-03T07:39:43;9.18;;;3.03;;
76059;SDS011;64759;52.220;5.170;2023-04-03T07:42:09;6.85;;;2.53;;
76059;SDS011;64759;52.220;5.170;2023-04-03T07:44:35;8.35;;;3.25;;
76059;SDS011;64759;52.220;5.170;2023-04-03T07:47:01;6.85;;;2.90;;
76059;SDS011;64759;52.220;5.170;2023-04-03T07:49:26;7.82;;;3.53;;
76059;SDS011;64759;52.220;5.170;2023-04-03T07:51:52;6.88;;;2.50;;
76059;SDS011;64759;52.220;5.170;2023-04-03T07:54:18;7.70;;;2.70;;
76059;SDS011;64759;52.220;5.170;2023-04-03T07:56:45;8.82;;;2.75;;
76059;SDS011;64759;52.220;5.170;2023-04-03T07:59:11;9.68;;;2.50;;
76059;SDS011;64759;52.220;5.170;2023-04-03T08:01:37;8.10;;;2.80;;
76059;SDS011;64759;52.220;5.170;2023-04-03T08:04:02;3.88;;;1.90;;
76059;SDS011;64759;52.220;5.170;2023-04-03T08:06:30;5.78;;;2.45;;
76059;SDS011;64759;52.220;5.170;2023-04-03T08:08:58;6.28;;;2.50;;
76059;SDS011;64759;52.220;5.170;2023-04-03T08:11:24;7.28;;;2.38;;
76059;SDS011;64759;52.220;5.170;2023-04-03T08:13:51;6.18;;;2.10;;
76059;SDS011;64759;52.220;5.170;2023-04-03T08:16:17;8.93;;;2.53;;
76059;SDS011;64759;52.220;5.170;2023-04-03T08:18:45;4.70;;;2.25;;
76059;SDS011;64759;52.220;5.170;2023-04-03T08:21:11;4.63;;;1.98;;
76059;SDS011;64759;52.220;5.170;2023-04-03T08:23:37;6.20;;;2.67;;
76059;SDS011;64759;52.220;5.170;2023-04-03T08:26:11;7.30;;;2.40;;
76059;SDS011;64759;52.220;5.170;2023-04-03T08:28:38;4.25;;;2.10;;
76059;SDS011;64759;52.220;5.170;2023-04-03T08:31:05;3.58;;;2.30;;
76059;SDS011;64759;52.220;5.170;2023-04-03T08:33:33;4.05;;;1.83;;
76059;SDS011;64759;52.220;5.170;2023-04-03T08:36:01;7.85;;;1.90;;
76059;SDS011;64759;52.220;5.170;2023-04-03T08:38:26;7.35;;;1.40;;
76059;SDS011;64759;52.220;5.170;2023-04-03T08:41:02;7.32;;;1.83;;
76059;SDS011;64759;52.220;5.170;2023-04-03T08:43:39;6.00;;;1.80;;
76059;SDS011;64759;52.220;5.170;2023-04-03T08:46:22;5.25;;;1.55;;
76059;SDS011;64759;52.220;5.170;2023-04-03T08:48:51;3.92;;;1.73;;
76059;SDS011;64759;52.220;5.170;2023-04-03T08:51:18;6.45;;;1.85;;
76059;SDS011;64759;52.220;5.170;2023-04-03T08:54:06;3.70;;;1.85;;
76059;SDS011;64759;52.220;5.170;2023-04-03T08:56:40;3.72;;;1.80;;
76059;SDS011;64759;52.220;5.170;2023-04-03T08:59:10;2.80;;;1.30;;
76059;SDS011;64759;52.220;5.170;2023-04-03T09:01:39;3.10;;;1.42;;
76059;SDS011;64759;52.220;5.170;2023-04-03T09:04:12;4.10;;;1.48;;
76059;SDS011;64759;52.220;5.170;2023-04-03T09:06:40;4.45;;;1.60;;
76059;SDS011;64759;52.220;5.170;2023-04-03T09:16:59;4.30;;;1.60;;
76059;SDS011;64759;52.220;5.170;2023-04-03T09:21:57;7.13;;;1.65;;
76059;SDS011;64759;52.220;5.170;2023-04-03T09:24:23;5.85;;;2.08;;
76059;SDS011;64759;52.220;5.170;2023-04-03T09:26:54;1.20;;;0.88;;
76059;SDS011;64759;52.220;5.170;2023-04-03T09:29:25;4.45;;;1.60;;
76059;SDS011;64759;52.220;5.170;2023-04-03T09:32:01;4.05;;;0.95;;
76059;SDS011;64759;52.220;5.170;2023-04-03T09:34:37;3.95;;;1.30;;
76059;SDS011;64759;52.220;5.170;2023-04-03T09:37:06;1.63;;;0.82;;
76059;SDS011;64759;52.220;5.170;2023-04-03T09:39:33;2.70;;;1.10;;
76059;SDS011;64759;52.220;5.170;2023-04-03T09:42:18;2.67;;;1.20;;
76059;SDS011;64759;52.220;5.170;2023-04-03T09:44:53;3.33;;;1.10;;
76059;SDS011;64759;52.220;5.170;2023-04-03T09:47:30;4.00;;;0.80;;
76059;SDS011;64759;52.220;5.170;2023-04-03T09:52:38;2.20;;;0.95;;
76059;SDS011;64759;52.220;5.170;2023-04-03T09:55:15;4.53;;;1.33;;
76059;SDS011;64759;52.220;5.170;2023-04-03T09:57:57;3.63;;;1.45;;
76059;SDS011;64759;52.220;5.170;2023-04-03T10:03:00;8.55;;;3.28;;
76059;SDS011;64759;52.220;5.170;2023-04-03T10:05:31;9.15;;;4.60;;
76059;SDS011;64759;52.220;5.170;2023-04-03T10:08:20;2.08;;;0.85;;
76059;SDS011;64759;52.220;5.170;2023-04-03T10:11:04;0.87;;;0.80;;
76059;SDS011;64759;52.220;5.170;2023-04-03T10:16:34;1.80;;;0.90;;
76059;SDS011;64759;52.220;5.170;2023-04-03T10:19:09;1.05;;;0.82;;
76059;SDS011;64759;52.220;5.170;2023-04-03T10:24:19;6.82;;;2.25;;
76059;SDS011;64759;52.220;5.170;2023-04-03T10:27:08;2.38;;;0.90;;
76059;SDS011;64759;52.220;5.170;2023-04-03T10:32:54;1.45;;;0.70;;
76059;SDS011;64759;52.220;5.170;2023-04-03T10:35:39;1.73;;;0.73;;
76059;SDS011;64759;52.220;5.170;2023-04-03T10:55:02;1.50;;;0.80;;
76059;SDS011;64759;52.220;5.170;2023-04-03T10:57:32;1.42;;;0.80;;
76059;SDS011;64759;52.220;5.170;2023-04-03T11:00:03;1.92;;;0.80;;
76059;SDS011;64759;52.220;5.170;2023-04-03T11:02:42;1.20;;;0.85;;
76059;SDS011;64759;52.220;5.170;2023-04-03T11:05:21;0.80;;;0.70;;
76059;SDS011;64759;52.220;5.170;2023-04-03T11:10:52;0.90;;;0.70;;
76059;SDS011;64759;52.220;5.170;2023-04-03T11:16:28;3.45;;;0.80;;
76059;SDS011;64759;52.220;5.170;2023-04-03T11:18:59;3.28;;;0.70;;
76059;SDS011;64759;52.220;5.170;2023-04-03T11:21:33;1.95;;;1.27;;
76059;SDS011;64759;52.220;5.170;2023-04-03T11:24:04;1.80;;;0.93;;
76059;SDS011;64759;52.220;5.170;2023-04-03T11:26:36;2.05;;;0.93;;
76059;SDS011;64759;52.220;5.170;2023-04-03T11:29:09;6.03;;;1.23;;
76059;SDS011;64759;52.220;5.170;2023-04-03T11:34:24;0.70;;;0.68;;
76059;SDS011;64759;52.220;5.170;2023-04-03T11:37:01;1.95;;;0.70;;
76059;SDS011;64759;52.220;5.170;2023-04-03T11:39:36;2.78;;;1.02;;
76059;SDS011;64759;52.220;5.170;2023-04-03T11:42:22;5.78;;;1.58;;
76059;SDS011;64759;52.220;5.170;2023-04-03T12:16:24;3.72;;;1.00;;
76059;SDS011;64759;52.220;5.170;2023-04-03T12:29:27;2.17;;;0.95;;
76059;SDS011;64759;52.220;5.170;2023-04-03T12:41:26;1.83;;;0.90;;
76059;SDS011;64759;52.220;5.170;2023-04-03T12:43:58;3.10;;;1.42;;
76059;SDS011;64759;52.220;5.170;2023-04-03T12:46:45;5.18;;;2.42;;
76059;SDS011;64759;52.220;5.170;2023-04-03T12:54:58;2.55;;;1.00;;
76059;SDS011;64759;52.220;5.170;2023-04-03T12:57:29;3.88;;;1.58;;
76059;SDS011;64759;52.220;5.170;2023-04-03T12:59:57;2.42;;;1.40;;
76059;SDS011;64759;52.220;5.170;2023-04-03T13:02:30;3.58;;;1.20;;
76059;SDS011;64759;52.220;5.170;2023-04-03T13:04:59;3.67;;;1.20;;
76059;SDS011;64759;52.220;5.170;2023-04-03T13:07:32;1.77;;;0.80;;
76059;SDS011;64759;52.220;5.170;2023-04-03T13:10:23;4.78;;;1.25;;
76059;SDS011;64759;52.220;5.170;2023-04-03T13:12:55;3.63;;;1.17;;
76059;SDS011;64759;52.220;5.170;2023-04-03T13:15:27;1.83;;;1.10;;
76059;SDS011;64759;52.220;5.170;2023-04-03T13:17:56;3.72;;;1.17;;
76059;SDS011;64759;52.220;5.170;2023-04-03T13:23:05;3.90;;;1.00;;
76059;SDS011;64759;52.220;5.170;2023-04-03T13:25:35;4.97;;;1.58;;
76059;SDS011;64759;52.220;5.170;2023-04-03T13:28:06;2.25;;;0.95;;
76059;SDS011;64759;52.220;5.170;2023-04-03T13:30:36;4.53;;;1.08;;
76059;SDS011;64759;52.220;5.170;2023-04-03T13:33:04;2.33;;;1.17;;
76059;SDS011;64759;52.220;5.170;2023-04-03T13:35:42;3.15;;;0.90;;
76059;SDS011;64759;52.220;5.170;2023-04-03T13:38:24;5.05;;;1.08;;
76059;SDS011;64759;52.220;5.170;2023-04-03T13:40:56;4.88;;;1.58;;
76059;SDS011;64759;52.220;5.170;2023-04-03T13:43:32;2.25;;;1.15;;
76059;SDS011;64759;52.220;5.170;2023-04-03T13:46:05;2.58;;;1.27;;
76059;SDS011;64759;52.220;5.170;2023-04-03T13:48:35;9.35;;;1.30;;
76059;SDS011;64759;52.220;5.170;2023-04-03T13:53:43;3.50;;;1.10;;
76059;SDS011;64759;52.220;5.170;2023-04-03T13:56:19;3.15;;;1.30;;
76059;SDS011;64759;52.220;5.170;2023-04-03T13:59:00;6.22;;;1.45;;
76059;SDS011;64759;52.220;5.170;2023-04-03T14:01:39;3.85;;;1.25;;
76059;SDS011;64759;52.220;5.170;2023-04-03T14:04:15;2.95;;;1.15;;
76059;SDS011;64759;52.220;5.170;2023-04-03T14:06:46;2.90;;;1.30;;
76059;SDS011;64759;52.220;5.170;2023-04-03T14:09:12;4.97;;;1.20;;
76059;SDS011;64759;52.220;5.170;2023-04-03T14:11:39;4.00;;;1.50;;
76059;SDS011;64759;52.220;5.170;2023-04-03T14:14:27;1.70;;;0.88;;
76059;SDS011;64759;52.220;5.170;2023-04-03T14:16:56;5.07;;;1.20;;
76059;SDS011;64759;52.220;5.170;2023-04-03T14:19:34;4.30;;;1.50;;
76059;SDS011;64759;52.220;5.170;2023-04-03T14:22:05;2.28;;;0.90;;
76059;SDS011;64759;52.220;5.170;2023-04-03T14:24:37;3.10;;;1.30;;
76059;SDS011;64759;52.220;5.170;2023-04-03T14:27:05;2.17;;;1.35;;
76059;SDS011;64759;52.220;5.170;2023-04-03T14:29:40;3.58;;;1.30;;
76059;SDS011;64759;52.220;5.170;2023-04-03T14:32:06;4.05;;;1.42;;
76059;SDS011;64759;52.220;5.170;2023-04-03T14:34:31;4.05;;;1.00;;
76059;SDS011;64759;52.220;5.170;2023-04-03T14:36:57;3.85;;;1.50;;
76059;SDS011;64759;52.220;5.170;2023-04-03T14:39:23;4.70;;;1.35;;
76059;SDS011;64759;52.220;5.170;2023-04-03T14:41:49;3.83;;;1.65;;
76059;SDS011;64759;52.220;5.170;2023-04-03T14:44:14;5.10;;;1.25;;
76059;SDS011;64759;52.220;5.170;2023-04-03T14:46:42;3.67;;;1.08;;
76059;SDS011;64759;52.220;5.170;2023-04-03T14:49:14;4.05;;;1.50;;
76059;SDS011;64759;52.220;5.170;2023-04-03T14:51:41;4.95;;;1.48;;
76059;SDS011;64759;52.220;5.170;2023-04-03T14:54:10;4.20;;;1.63;;
76059;SDS011;64759;52.220;5.170;2023-04-03T14:56:38;1.52;;;1.20;;
76059;SDS011;64759;52.220;5.170;2023-04-03T14:59:04;1.80;;;1.20;;
76059;SDS011;64759;52.220;5.170;2023-04-03T15:01:34;6.65;;;1.40;;
76059;SDS011;64759;52.220;5.170;2023-04-03T15:04:00;2.47;;;1.27;;
76059;SDS011;64759;52.220;5.170;2023-04-03T15:06:25;4.10;;;1.60;;
76059;SDS011;64759;52.220;5.170;2023-04-03T15:08:51;3.30;;;1.52;;
76059;SDS011;64759;52.220;5.170;2023-04-03T15:11:16;2.90;;;1.17;;
76059;SDS011;64759;52.220;5.170;2023-04-03T15:13:42;5.45;;;1.45;;
76059;SDS011;64759;52.220;5.170;2023-04-03T15:16:17;3.10;;;1.27;;
76059;SDS011;64759;52.220;5.170;2023-04-03T15:18:44;3.67;;;1.48;;
76059;SDS011;64759;52.220;5.170;2023-04-03T15:21:11;3.80;;;1.88;;
76059;SDS011;64759;52.220;5.170;2023-04-03T15:23:37;3.28;;;1.42;;
76059;SDS011;64759;52.220;5.170;2023-04-03T15:26:02;5.78;;;1.40;;
76059;SDS011;64759;52.220;5.170;2023-04-03T15:28:35;5.57;;;1.48;;
76059;SDS011;64759;52.220;5.170;2023-04-03T15:31:03;3.38;;;1.50;;
76059;SDS011;64759;52.220;5.170;2023-04-03T15:33:29;2.08;;;1.08;;
76059;SDS011;64759;52.220;5.170;2023-04-03T15:35:56;2.92;;;1.70;;
76059;SDS011;64759;52.220;5.170;2023-04-03T15:38:21;5.57;;;1.60;;
76059;SDS011;64759;52.220;5.170;2023-04-03T15:40:47;6.40;;;1.85;;
76059;SDS011;64759;52.220;5.170;2023-04-03T15:43:13;5.93;;;1.30;;
76059;SDS011;64759;52.220;5.170;2023-04-03T15:45:40;3.80;;;1.40;;
76059;SDS011;64759;52.220;5.170;2023-04-03T15:48:06;5.88;;;1.80;;
76059;SDS011;64759;52.220;5.170;2023-04-03T15:50:32;4.43;;;1.60;;
76059;SDS011;64759;52.220;5.170;2023-04-03T15:52:58;3.10;;;1.40;;
76059;SDS011;64759;52.220;5.170;2023-04-03T15:55:27;3.42;;;1.55;;
76059;SDS011;64759;52.220;5.170;2023-04-03T15:57:57;5.72;;;1.55;;
76059;SDS011;64759;52.220;5.170;2023-04-03T16:00:23;10.20;;;1.92;;
76059;SDS011;64759;52.220;5.170;2023-04-03T16:02:50;6.75;;;1.30;;
76059;SDS011;64759;52.220;5.170;2023-04-03T16:05:20;4.57;;;1.92;;
76059;SDS011;64759;52.220;5.170;2023-04-03T16:07:46;6.50;;;2.30;;
76059;SDS011;64759;52.220;5.170;2023-04-03T16:10:12;4.95;;;2.00;;
76059;SDS011;64759;52.220;5.170;2023-04-03T16:12:39;3.85;;;1.58;;
76059;SDS011;64759;52.220;5.170;2023-04-03T16:15:05;4.47;;;1.75;;
76059;SDS011;64759;52.220;5.170;2023-04-03T16:17:32;3.42;;;1.60;;
76059;SDS011;64759;52.220;5.170;2023-04-03T16:20:00;8.35;;;1.65;;
76059;SDS011;64759;52.220;5.170;2023-04-03T16:22:26;2.83;;;1.48;;
76059;SDS011;64759;52.220;5.170;2023-04-03T16:24:53;2.70;;;1.40;;
76059;SDS011;64759;52.220;5.170;2023-04-03T16:27:20;3.63;;;1.40;;
76059;SDS011;64759;52.220;5.170;2023-04-03T16:29:47;4.38;;;1.88;;
76059;SDS011;64759;52.220;5.170;2023-04-03T16:32:12;7.07;;;2.17;;
76059;SDS011;64759;52.220;5.170;2023-04-03T16:34:38;2.47;;;1.30;;
76059;SDS011;64759;52.220;5.170;2023-04-03T16:37:05;4.88;;;1.80;;
76059;SDS011;64759;52.220;5.170;2023-04-03T16:39:34;3.60;;;1.63;;
76059;SDS011;64759;52.220;5.170;2023-04-03T16:42:00;5.07;;;1.92;;
76059;SDS011;64759;52.220;5.170;2023-04-03T16:44:26;3.38;;;2.15;;
76059;SDS011;64759;52.220;5.170;2023-04-03T16:46:52;4.13;;;1.48;;
76059;SDS011;64759;52.220;5.170;2023-04-03T16:49:19;3.83;;;1.92;;
76059;SDS011;64759;52.220;5.170;2023-04-03T16:51:44;3.92;;;1.67;;
76059;SDS011;64759;52.220;5.170;2023-04-03T16:54:11;4.85;;;2.35;;
76059;SDS011;64759;52.220;5.170;2023-04-03T16:56:38;4.55;;;1.75;;
76059;SDS011;64759;52.220;5.170;2023-04-03T16:59:04;2.95;;;1.65;;